To NAV CANADA Home Page Login to a new session Search on AWWS site Feedback and Comments Disclaimer Vers la page française équivalente Tips FAQ What's new on the site To the Forecasts and Observations / NOTAM section To "File a Flight Plan" website Publications and other links Update of the User's profile FIC Telephone Numbers My Weather Data Folder Route Weather Data Regional Weather Data Local Weather Data To the Forecasts and Observations / NOTAM section
Request Generated 04/27/2015 at 20:40:33 UTC . Weather information available at that time is displayed.

METAR/TAF

STONY RAPIDS/SK    (show WxCam)

METAR CYSF 272000Z AUTO 16008G16KT 100V200 9SM CLR 11/M06 A3012 RMK
SLP213=
METAR CYSF 271900Z AUTO 16010G16KT 100V190 9SM CLR 10/M05 A3013 RMK
SLP217=
METAR CYSF 271800Z AUTO 12011G16KT 100V180 9SM CLR 09/M04 A3015 RMK
SLP225=

TAF CYSF 271738Z 2718/2806 12010KT P6SM SKC
FM280300 12008KT P6SM FEW040 BKN080 TEMPO 2803/2806 P6SM -SHRA
BKN040
RMK FCST BASED ON AUTO OBS. NXT FCST BY 280000Z=
Your time UTC time
Weather data provided by Environment Canada and NAV CANADA